Hot Springs, VA

11:36 PM EDT on September 23, 2017 (GMT -0400)
Ingalls

Weather History for KHSP - February, 2015

Change the Weather History Date:

Monday, February 9, 2015

  Actual Average Record
Temperature  
Mean Temperature 43 °F -  
Max Temperature 48 °F 35 °F 60 °F (2001)
Min Temperature 37 °F 21 °F 6 °F (2007)
Degree Days  
Heating Degree Days 22    
Moisture  
Dew Point 44 °F    
Average Humidity 96    
Maximum Humidity 100    
Minimum Humidity 77    
Precipitation  
Precipitation 0.05 in - - ()
Sea Level Pressure  
Sea Level Pressure 29.76 in    
Wind  
Wind Speed 12 mph (WNW)    
Max Wind Speed 21 mph    
Max Gust Speed 30 mph    
Visibility 6 miles    
Events Fog , Rain , Snow    
Averages and records for this station are not official NWS values.
T = Trace of Precipitation, MM = Missing Value Source: NWS Daily Summary

Daily Weather History Graph

Daily Weather History Graph

Search for Another Location

Airport or City:

Trip Planner

Search our weather history database for the weather conditions in past years. The results will help you decide how hot, cold, wet, or windy it might be!

Date:

Astronomy

Feb. 09, 2015 Rise Set
Actual Time 7:16 AM EST 5:51 PM EST
Civil Twilight 6:48 AM EST 6:18 PM EST
Nautical Twilight 6:17 AM EST 6:49 PM EST
Astronomical Twilight 5:47 AM EST 7:20 PM EST
Moon 11:18 PM EST (2/9) 9:59 AM EST (2/9)
Length of Visible Light 11h 29m
Length of Day
10h 35m
Waning Gibbous, 73% of the Moon is Illuminated
Feb 9
Waning Gibbous
Feb 11
Last Quarter
Feb 18
New
Feb 25
First Quarter
Mar 5
Full

Hourly Weather History & Observations

Time (EST) Temp. Windchill Dew Point Humidity Pressure Visibility Wind Dir Wind Speed Gust Speed Precip Events Conditions
12:15 AM 47.1 °F - 40.1 °F 77% 29.77 in 10.0 mi West 16.1 mph 28.8 mph N/A   Overcast
12:35 AM 46.9 °F - 40.1 °F 77% 29.77 in 10.0 mi West 19.6 mph 26.5 mph N/A   Overcast
12:55 AM 46.8 °F - 40.8 °F 80% 29.76 in 10.0 mi West 19.6 mph 29.9 mph N/A   Overcast
1:15 AM 46.6 °F - 41.0 °F 81% 29.77 in 10.0 mi West 15.0 mph 24.2 mph N/A   Overcast
1:35 AM 46.6 °F - 41.2 °F 81% 29.77 in 10.0 mi West 17.3 mph 25.3 mph N/A   Overcast
1:55 AM 46.4 °F 39.8 °F 41.2 °F 82% 29.77 in 10.0 mi West 16.1 mph 24.2 mph N/A   Overcast
2:15 AM 46.4 °F 39.0 °F 41.9 °F 84% 29.76 in 10.0 mi West 19.6 mph 28.8 mph N/A   Overcast
2:35 AM 46.0 °F 38.8 °F 42.1 °F 86% 29.76 in 10.0 mi West 18.4 mph 26.5 mph N/A   Overcast
2:55 AM 45.9 °F 39.1 °F 42.8 °F 89% 29.76 in 10.0 mi West 16.1 mph 23.0 mph N/A   Overcast
3:15 AM 45.9 °F 38.0 °F 44.4 °F 95% 29.75 in 10.0 mi West 20.7 mph 26.5 mph N/A   Overcast
3:35 AM 45.7 °F 38.3 °F 44.6 °F 96% 29.75 in 10.0 mi West 18.4 mph - N/A   Overcast
3:55 AM 45.5 °F 38.9 °F 45.0 °F 98% 29.75 in 10.0 mi West 15.0 mph 25.3 mph N/A   Overcast
4:15 AM 45.5 °F 39.9 °F 45.1 °F 99% 29.76 in 10.0 mi West 11.5 mph 17.3 mph N/A   Overcast
4:35 AM 45.1 °F 38.8 °F 45.1 °F 100% 29.75 in 10.0 mi West 13.8 mph - N/A   Overcast
4:55 AM 45.1 °F 39.5 °F 45.1 °F 100% 29.76 in 10.0 mi West 11.5 mph 18.4 mph N/A   Overcast
5:15 AM 45.0 °F 38.5 °F 45.0 °F 100% 29.76 in 10.0 mi West 13.8 mph 18.4 mph N/A   Overcast
5:35 AM 44.8 °F 39.9 °F 44.8 °F 100% 29.76 in 10.0 mi West 9.2 mph - N/A   Overcast
5:55 AM 44.8 °F 39.9 °F 44.8 °F 100% 29.76 in 10.0 mi West 9.2 mph - N/A   Overcast
6:15 AM 44.8 °F 39.9 °F 44.8 °F 100% 29.77 in 4.0 mi WSW 9.2 mph - N/A   Overcast
6:35 AM 44.8 °F 39.9 °F 44.8 °F 100% 29.77 in 0.2 mi West 9.2 mph - N/A Fog Fog
6:55 AM 44.6 °F 39.7 °F 44.6 °F 100% 29.78 in 0.2 mi WSW 9.2 mph - N/A Fog Fog
7:15 AM 44.6 °F 40.7 °F 44.6 °F 100% 29.78 in 0.2 mi West 6.9 mph - N/A Fog Fog
7:35 AM 44.6 °F 40.7 °F 44.6 °F 100% 29.78 in 0.2 mi West 6.9 mph - N/A Fog Fog
7:55 AM 44.6 °F 40.2 °F 44.6 °F 100% 29.80 in 0.2 mi WSW 8.1 mph - N/A Fog Fog
8:15 AM 44.6 °F 40.2 °F 44.6 °F 100% 29.80 in 0.2 mi WSW 8.1 mph - N/A Rain Light Rain
8:35 AM 44.8 °F 41.6 °F 44.8 °F 100% 29.80 in 0.2 mi WSW 5.8 mph - N/A Rain Light Rain
8:55 AM 45.1 °F 40.8 °F 45.1 °F 100% 29.80 in 0.2 mi WSW 8.1 mph - N/A Rain Rain
9:15 AM 45.1 °F 41.4 °F 45.1 °F 100% 29.80 in 0.2 mi WSW 6.9 mph - N/A Rain Light Rain
9:35 AM 45.5 °F 40.8 °F 45.5 °F 100% 29.80 in 0.2 mi WSW 9.2 mph - N/A Fog Fog
9:55 AM 45.7 °F 41.5 °F 45.7 °F 100% 29.79 in 0.2 mi WSW 8.1 mph - N/A Rain Light Rain
10:15 AM 45.7 °F 41.5 °F 45.7 °F 100% 29.79 in 0.2 mi WSW 8.1 mph - N/A Rain Light Rain
10:35 AM 45.7 °F 41.5 °F 45.7 °F 100% 29.79 in 0.2 mi West 8.1 mph - N/A Rain Light Rain
10:55 AM 45.9 °F 41.2 °F 45.9 °F 100% 29.79 in 0.8 mi WSW 9.2 mph - N/A   Overcast
11:15 AM 46.6 °F - 46.6 °F 100% 29.79 in 5.0 mi West 8.1 mph - N/A   Overcast
11:35 AM 46.6 °F - 46.6 °F 100% 29.78 in 10.0 mi West 9.2 mph - N/A   Overcast
11:55 AM 46.4 °F 42.4 °F 46.4 °F 100% 29.77 in 7.0 mi West 8.1 mph - N/A   Overcast
12:15 PM 46.2 °F 42.2 °F 46.2 °F 100% 29.77 in 5.0 mi West 8.1 mph - N/A   Overcast
12:35 PM 46.4 °F 41.9 °F 46.4 °F 100% 29.76 in 4.0 mi West 9.2 mph - N/A   Overcast
12:55 PM 47.1 °F - 47.1 °F 100% 29.75 in 10.0 mi West 9.2 mph - N/A   Overcast
1:15 PM 47.5 °F - 47.5 °F 100% 29.75 in 10.0 mi WNW 9.2 mph - N/A   Overcast
1:35 PM 47.7 °F - 47.7 °F 100% 29.74 in 10.0 mi West 9.2 mph - N/A   Overcast
1:55 PM 48.2 °F - 46.9 °F 95% 29.73 in 10.0 mi WNW 8.1 mph - N/A   Overcast
2:15 PM 48.4 °F - 46.6 °F 93% 29.73 in 10.0 mi WNW 8.1 mph - N/A   Overcast
2:35 PM 48.4 °F - 46.4 °F 93% 29.73 in 10.0 mi NW 6.9 mph - N/A   Overcast
2:55 PM 48.6 °F - 46.2 °F 92% 29.73 in 10.0 mi WNW 5.8 mph - N/A   Overcast
3:15 PM 47.8 °F - 46.4 °F 95% 29.73 in 10.0 mi WNW 5.8 mph - N/A   Overcast
3:35 PM 47.3 °F - 46.6 °F 97% 29.73 in 10.0 mi West 8.1 mph - N/A   Light Drizzle
3:55 PM 47.3 °F - 46.2 °F 96% 29.73 in 10.0 mi West 8.1 mph - N/A   Overcast
4:15 PM 47.3 °F - 43.9 °F 88% 29.73 in 10.0 mi West 6.9 mph - N/A   Overcast
4:35 PM 47.5 °F - 43.7 °F 87% 29.74 in 10.0 mi West 6.9 mph - N/A   Overcast
4:55 PM 47.5 °F - 43.7 °F 87% 29.74 in 10.0 mi WNW 5.8 mph - N/A   Overcast
5:15 PM 47.1 °F - 43.9 °F 88% 29.74 in 10.0 mi West 4.6 mph - N/A   Overcast
5:35 PM 46.8 °F - 44.1 °F 90% 29.75 in 10.0 mi West 4.6 mph - N/A   Overcast
5:55 PM 46.8 °F - 43.9 °F 90% 29.75 in 10.0 mi WNW 6.9 mph - N/A   Overcast
6:15 PM 46.8 °F - 43.9 °F 90% 29.75 in 10.0 mi NW 3.5 mph - N/A   Overcast
6:35 PM 45.9 °F 41.7 °F 43.7 °F 92% 29.76 in 10.0 mi North 8.1 mph - N/A   Overcast
6:55 PM 45.5 °F 42.5 °F 43.7 °F 93% 29.76 in 10.0 mi NNW 5.8 mph - N/A   Overcast
7:15 PM 45.1 °F 42.0 °F 43.7 °F 95% 29.76 in 10.0 mi NW 5.8 mph - N/A   Overcast
7:35 PM 44.8 °F 40.4 °F 43.7 °F 96% 29.76 in 10.0 mi NNW 8.1 mph - N/A   Overcast
7:55 PM 44.2 °F 40.3 °F 43.9 °F 99% 29.76 in 10.0 mi North 6.9 mph - N/A   Overcast
8:15 PM 43.0 °F - 43.0 °F 100% 29.76 in 0.2 mi Calm Calm - N/A Fog Fog
8:35 PM 41.9 °F 38.2 °F 41.9 °F 100% 29.76 in 0.2 mi ENE 5.8 mph - N/A Fog Fog
8:55 PM 40.5 °F 37.3 °F 40.5 °F 100% 29.77 in 0.2 mi ENE 4.6 mph - N/A   Unknown
9:15 PM 40.1 °F - 40.1 °F 100% 29.77 in 0.2 mi Calm Calm - N/A Rain Light Rain
9:35 PM 39.2 °F 35.9 °F 39.2 °F 100% 29.77 in 0.2 mi NE 4.6 mph - N/A   Drizzle
9:55 PM 39.6 °F 36.3 °F 39.6 °F 100% 29.77 in 0.2 mi ENE 4.6 mph - N/A   Unknown
10:15 PM 39.2 °F 33.0 °F 39.2 °F 100% 29.77 in 0.2 mi NE 9.2 mph - 0.02 in Rain Rain
10:35 PM 39.2 °F 34.2 °F 39.2 °F 100% 29.77 in 0.2 mi NE 6.9 mph - 0.05 in Rain Rain
10:55 PM 38.5 °F 35.0 °F 38.5 °F 100% 29.77 in 0.2 mi NE 4.6 mph - 0.05 in Rain Light Rain
11:15 PM 38.5 °F 33.4 °F 38.5 °F 100% 29.77 in 0.2 mi NE 6.9 mph - N/A Fog Fog
11:35 PM 38.3 °F 33.2 °F 38.3 °F 100% 29.77 in 0.2 mi ENE 6.9 mph - N/A   Unknown
11:55 PM 37.6 °F 31.6 °F 37.6 °F 100% 29.77 in 0.2 mi NE 8.1 mph - N/A Snow Light Snow